sensor_id;sensor_type;location;lat;lon;timestamp;temperature;humidity
7461;DHT22;6757;52.258;12.840;2023-02-03T00:00:43;1.50;99.90
7461;DHT22;6757;52.258;12.840;2023-02-03T00:03:10;1.50;99.90
7461;DHT22;6757;52.258;12.840;2023-02-03T00:05:37;1.60;99.90
7461;DHT22;6757;52.258;12.840;2023-02-03T00:08:06;1.70;99.90
7461;DHT22;6757;52.258;12.840;2023-02-03T00:10:34;1.70;99.90
7461;DHT22;6757;52.258;12.840;2023-02-03T00:13:03;1.80;99.90
7461;DHT22;6757;52.258;12.840;2023-02-03T00:15:30;1.80;99.90
7461;DHT22;6757;52.258;12.840;2023-02-03T00:17:57;1.90;99.90
7461;DHT22;6757;52.258;12.840;2023-02-03T00:20:24;1.90;99.90
7461;DHT22;6757;52.258;12.840;2023-02-03T00:22:51;2.00;99.90
7461;DHT22;6757;52.258;12.840;2023-02-03T00:25:18;2.00;99.90
7461;DHT22;6757;52.258;12.840;2023-02-03T00:27:46;2.10;99.90
7461;DHT22;6757;52.258;12.840;2023-02-03T00:30:14;2.10;99.90
7461;DHT22;6757;52.258;12.840;2023-02-03T00:32:41;2.10;99.90
7461;DHT22;6757;52.258;12.840;2023-02-03T00:35:08;2.20;99.90
7461;DHT22;6757;52.258;12.840;2023-02-03T00:37:35;2.20;99.90
7461;DHT22;6757;52.258;12.840;2023-02-03T00:40:02;2.20;99.90
7461;DHT22;6757;52.258;12.840;2023-02-03T00:42:29;2.30;99.90
7461;DHT22;6757;52.258;12.840;2023-02-03T00:44:56;2.30;99.90
7461;DHT22;6757;52.258;12.840;2023-02-03T00:47:24;2.30;99.90
7461;DHT22;6757;52.258;12.840;2023-02-03T00:49:51;2.30;99.90
7461;DHT22;6757;52.258;12.840;2023-02-03T00:52:18;2.30;99.90
7461;DHT22;6757;52.258;12.840;2023-02-03T00:54:45;2.30;99.90
7461;DHT22;6757;52.258;12.840;2023-02-03T00:57:12;2.40;99.90
7461;DHT22;6757;52.258;12.840;2023-02-03T00:59:38;2.40;99.90
7461;DHT22;6757;52.258;12.840;2023-02-03T01:02:05;2.40;99.90
7461;DHT22;6757;52.258;12.840;2023-02-03T01:04:33;2.40;99.90
7461;DHT22;6757;52.258;12.840;2023-02-03T01:07:00;2.40;99.90
7461;DHT22;6757;52.258;12.840;2023-02-03T01:09:27;2.40;99.90
7461;DHT22;6757;52.258;12.840;2023-02-03T01:11:54;2.40;99.90
7461;DHT22;6757;52.258;12.840;2023-02-03T01:14:21;2.40;99.90
7461;DHT22;6757;52.258;12.840;2023-02-03T01:16:48;2.40;99.90
7461;DHT22;6757;52.258;12.840;2023-02-03T01:19:15;2.40;99.90
7461;DHT22;6757;52.258;12.840;2023-02-03T01:21:43;2.40;99.90
7461;DHT22;6757;52.258;12.840;2023-02-03T01:24:10;2.40;99.90
7461;DHT22;6757;52.258;12.840;2023-02-03T01:26:39;2.30;99.90
7461;DHT22;6757;52.258;12.840;2023-02-03T01:29:07;2.30;99.90
7461;DHT22;6757;52.258;12.840;2023-02-03T01:31:36;2.30;99.90
7461;DHT22;6757;52.258;12.840;2023-02-03T01:34:06;2.30;99.90
7461;DHT22;6757;52.258;12.840;2023-02-03T01:36:34;2.30;99.90
7461;DHT22;6757;52.258;12.840;2023-02-03T01:39:03;2.20;99.90
7461;DHT22;6757;52.258;12.840;2023-02-03T01:41:33;2.30;99.90
7461;DHT22;6757;52.258;12.840;2023-02-03T01:47:22;2.20;99.90
7461;DHT22;6757;52.258;12.840;2023-02-03T01:49:56;2.20;99.90
7461;DHT22;6757;52.258;12.840;2023-02-03T01:52:28;2.20;99.90
7461;DHT22;6757;52.258;12.840;2023-02-03T01:54:57;2.10;99.90
7461;DHT22;6757;52.258;12.840;2023-02-03T01:57:28;2.10;99.90
7461;DHT22;6757;52.258;12.840;2023-02-03T01:59:58;2.10;99.90
7461;DHT22;6757;52.258;12.840;2023-02-03T02:02:26;2.10;99.90
7461;DHT22;6757;52.258;12.840;2023-02-03T02:04:57;2.10;99.90
7461;DHT22;6757;52.258;12.840;2023-02-03T02:07:30;2.10;99.90
7461;DHT22;6757;52.258;12.840;2023-02-03T02:09:59;2.10;99.90
7461;DHT22;6757;52.258;12.840;2023-02-03T02:12:26;2.10;99.90
7461;DHT22;6757;52.258;12.840;2023-02-03T02:14:53;2.10;99.90
7461;DHT22;6757;52.258;12.840;2023-02-03T02:17:47;2.10;99.90
7461;DHT22;6757;52.258;12.840;2023-02-03T02:20:31;2.10;99.90
7461;DHT22;6757;52.258;12.840;2023-02-03T02:26:42;2.10;99.90
7461;DHT22;6757;52.258;12.840;2023-02-03T02:29:34;2.00;99.90
7461;DHT22;6757;52.258;12.840;2023-02-03T02:32:29;2.10;99.90
7461;DHT22;6757;52.258;12.840;2023-02-03T02:35:03;2.10;99.90
7461;DHT22;6757;52.258;12.840;2023-02-03T02:37:41;2.00;99.90
7461;DHT22;6757;52.258;12.840;2023-02-03T02:40:18;2.10;99.90
7461;DHT22;6757;52.258;12.840;2023-02-03T02:42:58;2.00;99.90
7461;DHT22;6757;52.258;12.840;2023-02-03T02:45:36;2.00;99.90
7461;DHT22;6757;52.258;12.840;2023-02-03T02:48:13;2.10;99.90
7461;DHT22;6757;52.258;12.840;2023-02-03T02:50:45;2.10;99.90
7461;DHT22;6757;52.258;12.840;2023-02-03T02:53:14;2.10;99.90
7461;DHT22;6757;52.258;12.840;2023-02-03T02:55:44;2.10;99.90
7461;DHT22;6757;52.258;12.840;2023-02-03T02:58:14;2.10;99.90
7461;DHT22;6757;52.258;12.840;2023-02-03T03:00:42;2.20;99.90
7461;DHT22;6757;52.258;12.840;2023-02-03T03:03:13;2.10;99.90
7461;DHT22;6757;52.258;12.840;2023-02-03T03:05:45;2.20;99.90
7461;DHT22;6757;52.258;12.840;2023-02-03T03:08:19;2.20;99.90
7461;DHT22;6757;52.258;12.840;2023-02-03T03:10:48;2.20;99.90
7461;DHT22;6757;52.258;12.840;2023-02-03T03:13:19;2.30;99.90
7461;DHT22;6757;52.258;12.840;2023-02-03T03:15:51;2.30;99.90
7461;DHT22;6757;52.258;12.840;2023-02-03T03:18:22;2.40;99.90
7461;DHT22;6757;52.258;12.840;2023-02-03T03:20:52;2.40;99.90
7461;DHT22;6757;52.258;12.840;2023-02-03T03:23:25;2.50;99.90
7461;DHT22;6757;52.258;12.840;2023-02-03T03:26:01;2.50;99.90
7461;DHT22;6757;52.258;12.840;2023-02-03T03:28:36;2.50;99.90
7461;DHT22;6757;52.258;12.840;2023-02-03T03:31:10;2.60;99.90
7461;DHT22;6757;52.258;12.840;2023-02-03T03:33:38;2.70;99.90
7461;DHT22;6757;52.258;12.840;2023-02-03T03:36:13;2.70;99.90
7461;DHT22;6757;52.258;12.840;2023-02-03T03:38:48;2.80;99.90
7461;DHT22;6757;52.258;12.840;2023-02-03T03:41:24;2.90;99.90
7461;DHT22;6757;52.258;12.840;2023-02-03T03:43:56;3.00;99.90
7461;DHT22;6757;52.258;12.840;2023-02-03T03:46:28;3.00;99.90
7461;DHT22;6757;52.258;12.840;2023-02-03T03:48:59;3.10;99.90
7461;DHT22;6757;52.258;12.840;2023-02-03T03:51:31;3.10;99.90
7461;DHT22;6757;52.258;12.840;2023-02-03T03:54:03;3.20;99.90
7461;DHT22;6757;52.258;12.840;2023-02-03T03:56:34;3.20;99.90
7461;DHT22;6757;52.258;12.840;2023-02-03T03:59:06;3.30;99.90
7461;DHT22;6757;52.258;12.840;2023-02-03T04:01:35;3.30;99.90
7461;DHT22;6757;52.258;12.840;2023-02-03T04:04:07;3.40;99.90
7461;DHT22;6757;52.258;12.840;2023-02-03T04:06:37;3.40;99.90
7461;DHT22;6757;52.258;12.840;2023-02-03T04:09:05;3.50;99.90
7461;DHT22;6757;52.258;12.840;2023-02-03T04:11:32;3.60;99.90
7461;DHT22;6757;52.258;12.840;2023-02-03T04:14:17;3.60;99.90
7461;DHT22;6757;52.258;12.840;2023-02-03T04:16:43;3.70;99.90
7461;DHT22;6757;52.258;12.840;2023-02-03T04:19:12;3.80;99.90
7461;DHT22;6757;52.258;12.840;2023-02-03T04:21:38;3.80;99.90
7461;DHT22;6757;52.258;12.840;2023-02-03T04:24:06;3.90;99.90
7461;DHT22;6757;52.258;12.840;2023-02-03T04:26:33;4.10;99.90
7461;DHT22;6757;52.258;12.840;2023-02-03T04:28:59;4.20;99.90
7461;DHT22;6757;52.258;12.840;2023-02-03T04:31:26;4.30;99.90
7461;DHT22;6757;52.258;12.840;2023-02-03T04:33:53;4.40;99.90
7461;DHT22;6757;52.258;12.840;2023-02-03T04:36:21;4.50;99.90
7461;DHT22;6757;52.258;12.840;2023-02-03T04:38:48;4.60;99.90
7461;DHT22;6757;52.258;12.840;2023-02-03T04:41:16;4.60;99.90
7461;DHT22;6757;52.258;12.840;2023-02-03T04:43:43;4.70;99.90
7461;DHT22;6757;52.258;12.840;2023-02-03T04:46:10;4.80;99.90
7461;DHT22;6757;52.258;12.840;2023-02-03T04:48:37;4.90;99.90
7461;DHT22;6757;52.258;12.840;2023-02-03T04:51:06;4.90;99.90
7461;DHT22;6757;52.258;12.840;2023-02-03T04:53:34;5.00;99.90
7461;DHT22;6757;52.258;12.840;2023-02-03T04:56:02;5.10;99.90
7461;DHT22;6757;52.258;12.840;2023-02-03T04:58:29;5.10;99.90
7461;DHT22;6757;52.258;12.840;2023-02-03T05:00:56;5.20;99.90
7461;DHT22;6757;52.258;12.840;2023-02-03T05:03:23;5.20;99.90
7461;DHT22;6757;52.258;12.840;2023-02-03T05:05:50;5.30;99.90
7461;DHT22;6757;52.258;12.840;2023-02-03T05:08:16;5.30;99.90
7461;DHT22;6757;52.258;12.840;2023-02-03T05:10:45;5.40;99.90
7461;DHT22;6757;52.258;12.840;2023-02-03T05:13:12;5.40;99.90
7461;DHT22;6757;52.258;12.840;2023-02-03T05:15:39;5.50;99.90
7461;DHT22;6757;52.258;12.840;2023-02-03T05:18:06;5.50;99.90
7461;DHT22;6757;52.258;12.840;2023-02-03T05:20:32;5.60;99.90
7461;DHT22;6757;52.258;12.840;2023-02-03T05:22:59;5.60;99.90
7461;DHT22;6757;52.258;12.840;2023-02-03T05:25:26;5.60;99.90
7461;DHT22;6757;52.258;12.840;2023-02-03T05:27:54;5.60;99.90
7461;DHT22;6757;52.258;12.840;2023-02-03T05:30:21;5.70;99.90
7461;DHT22;6757;52.258;12.840;2023-02-03T05:32:48;5.70;99.90
7461;DHT22;6757;52.258;12.840;2023-02-03T05:35:15;5.70;99.90
7461;DHT22;6757;52.258;12.840;2023-02-03T05:37:43;5.80;99.90
7461;DHT22;6757;52.258;12.840;2023-02-03T05:40:11;5.80;99.90
7461;DHT22;6757;52.258;12.840;2023-02-03T05:42:57;5.80;99.90
7461;DHT22;6757;52.258;12.840;2023-02-03T05:45:24;5.80;99.90
7461;DHT22;6757;52.258;12.840;2023-02-03T05:47:51;5.90;99.90
7461;DHT22;6757;52.258;12.840;2023-02-03T05:50:18;5.90;99.90
7461;DHT22;6757;52.258;12.840;2023-02-03T05:52:47;5.90;99.90
7461;DHT22;6757;52.258;12.840;2023-02-03T05:55:15;6.00;99.90
7461;DHT22;6757;52.258;12.840;2023-02-03T05:57:42;6.00;99.90
7461;DHT22;6757;52.258;12.840;2023-02-03T06:00:11;6.10;99.90
7461;DHT22;6757;52.258;12.840;2023-02-03T06:02:39;6.10;99.90
7461;DHT22;6757;52.258;12.840;2023-02-03T06:05:06;6.10;99.90
7461;DHT22;6757;52.258;12.840;2023-02-03T06:07:34;6.10;99.90
7461;DHT22;6757;52.258;12.840;2023-02-03T06:10:01;6.20;99.90
7461;DHT22;6757;52.258;12.840;2023-02-03T06:12:28;6.20;99.90
7461;DHT22;6757;52.258;12.840;2023-02-03T06:14:55;6.20;99.90
7461;DHT22;6757;52.258;12.840;2023-02-03T06:17:23;6.30;99.90
7461;DHT22;6757;52.258;12.840;2023-02-03T06:19:50;6.30;99.90
7461;DHT22;6757;52.258;12.840;2023-02-03T06:22:17;6.30;99.90
7461;DHT22;6757;52.258;12.840;2023-02-03T06:24:44;6.30;99.90
7461;DHT22;6757;52.258;12.840;2023-02-03T06:27:12;6.30;99.90
7461;DHT22;6757;52.258;12.840;2023-02-03T06:29:39;6.30;99.90
7461;DHT22;6757;52.258;12.840;2023-02-03T06:32:06;6.30;99.90
7461;DHT22;6757;52.258;12.840;2023-02-03T06:34:35;6.30;99.90
7461;DHT22;6757;52.258;12.840;2023-02-03T06:37:02;6.40;99.90
7461;DHT22;6757;52.258;12.840;2023-02-03T06:39:28;6.40;99.90
7461;DHT22;6757;52.258;12.840;2023-02-03T06:41:55;6.40;99.90
7461;DHT22;6757;52.258;12.840;2023-02-03T06:44:22;6.40;99.90
7461;DHT22;6757;52.258;12.840;2023-02-03T06:46:49;6.40;99.90
7461;DHT22;6757;52.258;12.840;2023-02-03T06:49:16;6.40;99.90
7461;DHT22;6757;52.258;12.840;2023-02-03T06:51:45;6.40;99.90
7461;DHT22;6757;52.258;12.840;2023-02-03T06:54:12;6.40;99.90
7461;DHT22;6757;52.258;12.840;2023-02-03T06:56:40;6.40;99.90
7461;DHT22;6757;52.258;12.840;2023-02-03T06:59:06;6.40;99.90
7461;DHT22;6757;52.258;12.840;2023-02-03T07:01:34;6.40;99.90
7461;DHT22;6757;52.258;12.840;2023-02-03T07:04:01;6.40;99.90
7461;DHT22;6757;52.258;12.840;2023-02-03T07:06:29;6.40;99.90
7461;DHT22;6757;52.258;12.840;2023-02-03T07:09:01;6.40;99.90
7461;DHT22;6757;52.258;12.840;2023-02-03T07:11:30;6.40;99.90
7461;DHT22;6757;52.258;12.840;2023-02-03T07:13:57;6.50;99.90
7461;DHT22;6757;52.258;12.840;2023-02-03T07:16:24;6.40;99.90
7461;DHT22;6757;52.258;12.840;2023-02-03T07:18:52;6.50;99.90
7461;DHT22;6757;52.258;12.840;2023-02-03T07:21:19;6.50;99.90
7461;DHT22;6757;52.258;12.840;2023-02-03T07:23:46;6.50;99.90
7461;DHT22;6757;52.258;12.840;2023-02-03T07:26:15;6.50;99.90
7461;DHT22;6757;52.258;12.840;2023-02-03T07:28:43;6.50;99.90
7461;DHT22;6757;52.258;12.840;2023-02-03T07:31:10;6.50;99.90
7461;DHT22;6757;52.258;12.840;2023-02-03T07:33:37;6.50;99.90
7461;DHT22;6757;52.258;12.840;2023-02-03T07:36:05;6.50;99.90
7461;DHT22;6757;52.258;12.840;2023-02-03T07:38:33;6.50;99.90
7461;DHT22;6757;52.258;12.840;2023-02-03T07:41:00;6.50;99.90
7461;DHT22;6757;52.258;12.840;2023-02-03T07:43:28;6.50;99.90
7461;DHT22;6757;52.258;12.840;2023-02-03T07:45:55;6.50;99.90
7461;DHT22;6757;52.258;12.840;2023-02-03T07:48:22;6.50;99.90
7461;DHT22;6757;52.258;12.840;2023-02-03T07:50:49;6.50;99.90
7461;DHT22;6757;52.258;12.840;2023-02-03T07:53:17;6.50;99.90
7461;DHT22;6757;52.258;12.840;2023-02-03T07:55:44;6.50;99.90
7461;DHT22;6757;52.258;12.840;2023-02-03T07:58:11;6.50;99.90
7461;DHT22;6757;52.258;12.840;2023-02-03T08:00:39;6.50;99.90
7461;DHT22;6757;52.258;12.840;2023-02-03T08:03:06;6.50;99.90
7461;DHT22;6757;52.258;12.840;2023-02-03T08:05:33;6.60;99.90
7461;DHT22;6757;52.258;12.840;2023-02-03T08:07:59;6.50;99.90
7461;DHT22;6757;52.258;12.840;2023-02-03T08:10:26;6.50;99.90
7461;DHT22;6757;52.258;12.840;2023-02-03T08:12:54;6.60;99.90
7461;DHT22;6757;52.258;12.840;2023-02-03T08:15:21;6.50;99.90
7461;DHT22;6757;52.258;12.840;2023-02-03T08:17:49;6.60;99.90
7461;DHT22;6757;52.258;12.840;2023-02-03T08:20:17;6.60;99.90
7461;DHT22;6757;52.258;12.840;2023-02-03T08:22:44;6.60;99.90
7461;DHT22;6757;52.258;12.840;2023-02-03T08:25:11;6.60;99.90
7461;DHT22;6757;52.258;12.840;2023-02-03T08:27:39;6.60;99.90
7461;DHT22;6757;52.258;12.840;2023-02-03T08:30:08;6.60;99.90
7461;DHT22;6757;52.258;12.840;2023-02-03T08:32:38;6.60;99.90
7461;DHT22;6757;52.258;12.840;2023-02-03T08:35:07;6.60;99.90
7461;DHT22;6757;52.258;12.840;2023-02-03T08:37:34;6.60;99.90
7461;DHT22;6757;52.258;12.840;2023-02-03T08:40:01;6.60;99.90
7461;DHT22;6757;52.258;12.840;2023-02-03T08:42:27;6.70;99.90
7461;DHT22;6757;52.258;12.840;2023-02-03T08:44:55;6.70;99.90
7461;DHT22;6757;52.258;12.840;2023-02-03T08:47:21;6.70;99.90
7461;DHT22;6757;52.258;12.840;2023-02-03T08:49:49;6.70;99.90
7461;DHT22;6757;52.258;12.840;2023-02-03T08:52:17;6.70;99.90
7461;DHT22;6757;52.258;12.840;2023-02-03T08:54:44;6.80;99.90
7461;DHT22;6757;52.258;12.840;2023-02-03T08:57:11;6.70;99.90
7461;DHT22;6757;52.258;12.840;2023-02-03T08:59:40;6.80;99.90
7461;DHT22;6757;52.258;12.840;2023-02-03T09:02:12;6.80;99.90
7461;DHT22;6757;52.258;12.840;2023-02-03T09:04:42;6.80;99.90
7461;DHT22;6757;52.258;12.840;2023-02-03T09:07:09;6.80;99.90
7461;DHT22;6757;52.258;12.840;2023-02-03T09:09:39;6.80;99.90
7461;DHT22;6757;52.258;12.840;2023-02-03T09:12:06;6.80;99.90
7461;DHT22;6757;52.258;12.840;2023-02-03T09:14:33;6.90;99.90
7461;DHT22;6757;52.258;12.840;2023-02-03T09:17:01;6.90;99.90
7461;DHT22;6757;52.258;12.840;2023-02-03T09:19:29;6.90;99.90
7461;DHT22;6757;52.258;12.840;2023-02-03T09:21:56;6.90;99.90
7461;DHT22;6757;52.258;12.840;2023-02-03T09:24:24;6.90;99.90
7461;DHT22;6757;52.258;12.840;2023-02-03T09:26:52;6.90;99.90
7461;DHT22;6757;52.258;12.840;2023-02-03T09:29:19;7.00;99.90
7461;DHT22;6757;52.258;12.840;2023-02-03T09:31:48;7.00;99.90
7461;DHT22;6757;52.258;12.840;2023-02-03T09:34:17;7.00;99.90
7461;DHT22;6757;52.258;12.840;2023-02-03T09:36:44;7.00;99.90
7461;DHT22;6757;52.258;12.840;2023-02-03T09:39:11;7.00;99.90
7461;DHT22;6757;52.258;12.840;2023-02-03T09:42:02;7.10;99.90
7461;DHT22;6757;52.258;12.840;2023-02-03T09:44:55;7.10;99.90
7461;DHT22;6757;52.258;12.840;2023-02-03T09:47:28;7.10;99.90
7461;DHT22;6757;52.258;12.840;2023-02-03T09:50:00;7.10;99.90
7461;DHT22;6757;52.258;12.840;2023-02-03T09:52:31;7.10;99.90
7461;DHT22;6757;52.258;12.840;2023-02-03T09:55:03;7.10;99.90
7461;DHT22;6757;52.258;12.840;2023-02-03T09:57:39;7.10;99.90
7461;DHT22;6757;52.258;12.840;2023-02-03T10:00:18;7.10;99.90
7461;DHT22;6757;52.258;12.840;2023-02-03T10:02:54;7.20;99.90
7461;DHT22;6757;52.258;12.840;2023-02-03T10:05:29;7.20;99.90
7461;DHT22;6757;52.258;12.840;2023-02-03T10:08:17;7.20;99.90
7461;DHT22;6757;52.258;12.840;2023-02-03T10:10:54;7.30;99.90
7461;DHT22;6757;52.258;12.840;2023-02-03T10:13:40;7.30;99.90
7461;DHT22;6757;52.258;12.840;2023-02-03T10:16:19;7.30;99.90
7461;DHT22;6757;52.258;12.840;2023-02-03T10:18:52;7.30;99.90
7461;DHT22;6757;52.258;12.840;2023-02-03T10:21:33;7.40;99.90
7461;DHT22;6757;52.258;12.840;2023-02-03T10:24:03;7.40;99.90
7461;DHT22;6757;52.258;12.840;2023-02-03T10:26:34;7.40;99.90
7461;DHT22;6757;52.258;12.840;2023-02-03T10:29:11;7.40;99.90
7461;DHT22;6757;52.258;12.840;2023-02-03T10:31:43;7.40;99.90
7461;DHT22;6757;52.258;12.840;2023-02-03T10:34:13;7.50;99.90
7461;DHT22;6757;52.258;12.840;2023-02-03T10:36:51;7.50;99.90
7461;DHT22;6757;52.258;12.840;2023-02-03T10:39:26;7.50;99.90
7461;DHT22;6757;52.258;12.840;2023-02-03T10:41:57;7.50;99.90
7461;DHT22;6757;52.258;12.840;2023-02-03T10:44:30;7.60;99.90
7461;DHT22;6757;52.258;12.840;2023-02-03T10:47:19;7.60;99.90
7461;DHT22;6757;52.258;12.840;2023-02-03T10:49:49;7.60;99.90
7461;DHT22;6757;52.258;12.840;2023-02-03T10:52:25;7.60;99.90
7461;DHT22;6757;52.258;12.840;2023-02-03T10:54:54;7.60;99.90
7461;DHT22;6757;52.258;12.840;2023-02-03T10:57:24;7.60;99.90
7461;DHT22;6757;52.258;12.840;2023-02-03T11:00:10;7.60;99.90
7461;DHT22;6757;52.258;12.840;2023-02-03T11:02:54;7.60;99.90
7461;DHT22;6757;52.258;12.840;2023-02-03T11:05:23;7.60;99.90
7461;DHT22;6757;52.258;12.840;2023-02-03T11:07:51;7.60;99.90
7461;DHT22;6757;52.258;12.840;2023-02-03T11:10:29;7.60;99.90
7461;DHT22;6757;52.258;12.840;2023-02-03T11:13:17;7.60;99.90
7461;DHT22;6757;52.258;12.840;2023-02-03T11:15:58;7.60;99.90
7461;DHT22;6757;52.258;12.840;2023-02-03T11:18:35;7.50;99.90
7461;DHT22;6757;52.258;12.840;2023-02-03T11:21:08;7.50;99.90
7461;DHT22;6757;52.258;12.840;2023-02-03T11:23:47;7.40;99.90
7461;DHT22;6757;52.258;12.840;2023-02-03T11:26:19;7.30;99.90
7461;DHT22;6757;52.258;12.840;2023-02-03T11:28:50;7.10;99.90
7461;DHT22;6757;52.258;12.840;2023-02-03T11:31:22;7.00;99.90
7461;DHT22;6757;52.258;12.840;2023-02-03T11:33:51;6.80;99.90
7461;DHT22;6757;52.258;12.840;2023-02-03T11:36:20;6.70;99.90
7461;DHT22;6757;52.258;12.840;2023-02-03T11:38:47;6.60;99.90
7461;DHT22;6757;52.258;12.840;2023-02-03T11:41:17;6.60;99.90
7461;DHT22;6757;52.258;12.840;2023-02-03T11:43:45;6.50;99.90
7461;DHT22;6757;52.258;12.840;2023-02-03T11:46:13;6.50;99.90
7461;DHT22;6757;52.258;12.840;2023-02-03T11:48:50;6.50;99.90
7461;DHT22;6757;52.258;12.840;2023-02-03T11:51:32;6.50;99.90
7461;DHT22;6757;52.258;12.840;2023-02-03T11:54:16;6.50;99.90
7461;DHT22;6757;52.258;12.840;2023-02-03T11:57:00;6.50;99.90
7461;DHT22;6757;52.258;12.840;2023-02-03T11:59:53;6.50;99.90
7461;DHT22;6757;52.258;12.840;2023-02-03T12:05:57;6.70;99.90
7461;DHT22;6757;52.258;12.840;2023-02-03T12:08:41;6.80;99.90
7461;DHT22;6757;52.258;12.840;2023-02-03T12:11:25;6.80;99.90
7461;DHT22;6757;52.258;12.840;2023-02-03T12:14:14;6.90;99.90
7461;DHT22;6757;52.258;12.840;2023-02-03T12:16:59;6.90;99.90
7461;DHT22;6757;52.258;12.840;2023-02-03T12:19:43;7.00;99.90
7461;DHT22;6757;52.258;12.840;2023-02-03T12:22:28;6.90;99.90
7461;DHT22;6757;52.258;12.840;2023-02-03T12:25:07;7.00;99.90
7461;DHT22;6757;52.258;12.840;2023-02-03T12:27:51;7.00;99.90
7461;DHT22;6757;52.258;12.840;2023-02-03T12:30:26;7.10;99.90
7461;DHT22;6757;52.258;12.840;2023-02-03T12:32:56;7.10;99.90
7461;DHT22;6757;52.258;12.840;2023-02-03T12:35:31;7.10;99.90
7461;DHT22;6757;52.258;12.840;2023-02-03T12:38:04;7.20;99.90
7461;DHT22;6757;52.258;12.840;2023-02-03T12:40:35;7.40;99.90
7461;DHT22;6757;52.258;12.840;2023-02-03T12:43:18;7.60;99.90
7461;DHT22;6757;52.258;12.840;2023-02-03T12:45:52;7.90;99.90
7461;DHT22;6757;52.258;12.840;2023-02-03T12:48:22;8.10;99.90
7461;DHT22;6757;52.258;12.840;2023-02-03T12:50:56;8.30;99.90
7461;DHT22;6757;52.258;12.840;2023-02-03T12:53:30;8.30;99.90
7461;DHT22;6757;52.258;12.840;2023-02-03T12:56:03;8.30;99.90
7461;DHT22;6757;52.258;12.840;2023-02-03T12:58:37;8.20;99.90
7461;DHT22;6757;52.258;12.840;2023-02-03T13:01:08;8.00;99.90
7461;DHT22;6757;52.258;12.840;2023-02-03T13:03:43;7.70;99.90
7461;DHT22;6757;52.258;12.840;2023-02-03T13:06:16;7.30;99.90
7461;DHT22;6757;52.258;12.840;2023-02-03T13:08:48;6.80;99.90
7461;DHT22;6757;52.258;12.840;2023-02-03T13:11:22;6.30;99.90
7461;DHT22;6757;52.258;12.840;2023-02-03T13:13:55;6.00;99.90
7461;DHT22;6757;52.258;12.840;2023-02-03T13:16:27;5.90;99.90
7461;DHT22;6757;52.258;12.840;2023-02-03T13:18:59;6.10;99.90
7461;DHT22;6757;52.258;12.840;2023-02-03T13:21:28;6.30;99.90
7461;DHT22;6757;52.258;12.840;2023-02-03T13:23:57;6.60;99.90
7461;DHT22;6757;52.258;12.840;2023-02-03T13:26:54;6.80;99.90
7461;DHT22;6757;52.258;12.840;2023-02-03T13:29:43;6.90;99.90
7461;DHT22;6757;52.258;12.840;2023-02-03T13:32:31;6.90;99.90
7461;DHT22;6757;52.258;12.840;2023-02-03T13:35:22;6.80;99.90
7461;DHT22;6757;52.258;12.840;2023-02-03T13:38:15;6.70;99.90
7461;DHT22;6757;52.258;12.840;2023-02-03T13:41:06;6.50;99.90
7461;DHT22;6757;52.258;12.840;2023-02-03T13:43:38;6.40;99.90
7461;DHT22;6757;52.258;12.840;2023-02-03T13:46:17;6.50;99.90
7461;DHT22;6757;52.258;12.840;2023-02-03T13:48:47;6.60;99.90
7461;DHT22;6757;52.258;12.840;2023-02-03T13:51:16;6.70;99.90
7461;DHT22;6757;52.258;12.840;2023-02-03T13:53:45;6.70;99.90
7461;DHT22;6757;52.258;12.840;2023-02-03T13:56:19;6.70;99.90
7461;DHT22;6757;52.258;12.840;2023-02-03T13:59:02;6.60;99.90
7461;DHT22;6757;52.258;12.840;2023-02-03T14:01:33;6.50;99.90
7461;DHT22;6757;52.258;12.840;2023-02-03T14:04:02;6.30;99.90
7461;DHT22;6757;52.258;12.840;2023-02-03T14:06:58;6.20;99.90
7461;DHT22;6757;52.258;12.840;2023-02-03T14:09:39;6.10;99.90
7461;DHT22;6757;52.258;12.840;2023-02-03T14:21:13;6.20;99.90
7461;DHT22;6757;52.258;12.840;2023-02-03T14:23:56;6.30;99.90
7461;DHT22;6757;52.258;12.840;2023-02-03T14:26:32;6.30;99.90
7461;DHT22;6757;52.258;12.840;2023-02-03T14:29:06;6.30;99.90
7461;DHT22;6757;52.258;12.840;2023-02-03T14:31:58;6.30;99.90
7461;DHT22;6757;52.258;12.840;2023-02-03T14:34:34;6.20;99.90
7461;DHT22;6757;52.258;12.840;2023-02-03T14:37:16;6.10;99.90
7461;DHT22;6757;52.258;12.840;2023-02-03T14:43:03;6.00;99.90
7461;DHT22;6757;52.258;12.840;2023-02-03T14:46:16;6.00;99.90
7461;DHT22;6757;52.258;12.840;2023-02-03T14:49:03;6.00;99.90
7461;DHT22;6757;52.258;12.840;2023-02-03T14:51:50;6.00;99.90
7461;DHT22;6757;52.258;12.840;2023-02-03T14:54:42;6.00;99.90
7461;DHT22;6757;52.258;12.840;2023-02-03T14:57:24;6.10;99.90
7461;DHT22;6757;52.258;12.840;2023-02-03T15:00:00;6.10;99.90
7461;DHT22;6757;52.258;12.840;2023-02-03T15:02:32;6.20;99.90
7461;DHT22;6757;52.258;12.840;2023-02-03T15:05:33;6.30;99.90
7461;DHT22;6757;52.258;12.840;2023-02-03T15:08:02;6.30;99.90
7461;DHT22;6757;52.258;12.840;2023-02-03T15:10:40;6.40;99.90
7461;DHT22;6757;52.258;12.840;2023-02-03T15:13:23;6.40;99.90
7461;DHT22;6757;52.258;12.840;2023-02-03T15:15:52;6.40;99.90
7461;DHT22;6757;52.258;12.840;2023-02-03T15:18:27;6.50;99.90
7461;DHT22;6757;52.258;12.840;2023-02-03T15:20:56;6.40;99.90
7461;DHT22;6757;52.258;12.840;2023-02-03T15:23:25;6.50;99.90
7461;DHT22;6757;52.258;12.840;2023-02-03T15:25:54;6.50;99.90
7461;DHT22;6757;52.258;12.840;2023-02-03T15:28:23;6.60;99.90
7461;DHT22;6757;52.258;12.840;2023-02-03T15:30:54;6.60;99.90
7461;DHT22;6757;52.258;12.840;2023-02-03T15:33:26;6.60;99.90
7461;DHT22;6757;52.258;12.840;2023-02-03T15:35:58;6.60;99.90
7461;DHT22;6757;52.258;12.840;2023-02-03T15:38:31;6.60;99.90
7461;DHT22;6757;52.258;12.840;2023-02-03T15:41:01;6.60;99.90
7461;DHT22;6757;52.258;12.840;2023-02-03T15:43:31;6.60;99.90
7461;DHT22;6757;52.258;12.840;2023-02-03T15:46:04;6.60;99.90
7461;DHT22;6757;52.258;12.840;2023-02-03T15:48:39;6.60;99.90
7461;DHT22;6757;52.258;12.840;2023-02-03T15:51:10;6.60;99.90
7461;DHT22;6757;52.258;12.840;2023-02-03T15:53:47;6.60;99.90
7461;DHT22;6757;52.258;12.840;2023-02-03T15:56:21;6.60;99.90
7461;DHT22;6757;52.258;12.840;2023-02-03T15:58:51;6.60;99.90
7461;DHT22;6757;52.258;12.840;2023-02-03T16:01:21;6.60;99.90
7461;DHT22;6757;52.258;12.840;2023-02-03T16:03:53;6.60;99.90
7461;DHT22;6757;52.258;12.840;2023-02-03T16:06:24;6.60;99.90
7461;DHT22;6757;52.258;12.840;2023-02-03T16:08:53;6.50;99.90
7461;DHT22;6757;52.258;12.840;2023-02-03T16:11:27;6.50;99.90
7461;DHT22;6757;52.258;12.840;2023-02-03T16:13:56;6.50;99.90
7461;DHT22;6757;52.258;12.840;2023-02-03T16:16:27;6.40;99.90
7461;DHT22;6757;52.258;12.840;2023-02-03T16:18:58;6.40;99.90
7461;DHT22;6757;52.258;12.840;2023-02-03T16:21:31;6.40;99.90
7461;DHT22;6757;52.258;12.840;2023-02-03T16:24:01;6.30;99.90
7461;DHT22;6757;52.258;12.840;2023-02-03T16:26:30;6.30;99.90
7461;DHT22;6757;52.258;12.840;2023-02-03T16:29:16;6.30;99.90
7461;DHT22;6757;52.258;12.840;2023-02-03T16:32:01;6.30;99.90
7461;DHT22;6757;52.258;12.840;2023-02-03T16:34:46;6.30;99.90
7461;DHT22;6757;52.258;12.840;2023-02-03T16:37:33;6.20;99.90
7461;DHT22;6757;52.258;12.840;2023-02-03T16:40:21;6.20;99.90
7461;DHT22;6757;52.258;12.840;2023-02-03T16:43:11;6.20;99.90
7461;DHT22;6757;52.258;12.840;2023-02-03T16:45:58;6.20;99.90
7461;DHT22;6757;52.258;12.840;2023-02-03T16:48:43;6.20;99.90
7461;DHT22;6757;52.258;12.840;2023-02-03T16:51:37;6.20;99.90
7461;DHT22;6757;52.258;12.840;2023-02-03T16:54:05;6.20;99.90
7461;DHT22;6757;52.258;12.840;2023-02-03T16:56:33;6.30;99.90